Time;durP1;ratioP1;P1;durP2;ratioP2;P2;SDS_P1;SDS_P2;PMS_P1;PMS_P2;Temp;Humidity;BMP_temperature;BMP_pressure;BME280_temperature;BME280_humidity;BME280_pressure;Samples;Min_cycle;Max_cycle;Signal;HPM_P1;HPM_P2
2022/12/15 00:40:59;;;;;;;32.95;16.60;;;-4.20;99.90;;;;;;5049242;28;20064;-49
2022/12/15 00:43:29;;;;;;;33.67;16.98;;;-4.20;99.90;;;;;;5048347;28;20368;-47
2022/12/15 00:48:40;;;;;;;35.92;17.15;;;-4.20;99.90;;;;;;5048647;28;20083;-48
2022/12/15 00:51:06;;;;;;;34.78;16.40;;;-4.10;99.90;;;;;;5048772;28;20076;-49
2022/12/15 01:20:58;;;;;;;28.98;14.75;;;-4.80;99.90;;;;;;5049017;28;20218;-48
2022/12/15 01:23:25;;;;;;;31.60;14.52;;;-4.90;99.90;;;;;;5048836;28;20041;-47
2022/12/15 01:25:51;;;;;;;32.38;15.05;;;-4.80;99.90;;;;;;5048743;28;20041;-47
2022/12/15 01:28:18;;;;;;;27.80;14.10;;;-4.80;99.90;;;;;;5047573;28;20360;-47
2022/12/15 01:30:44;;;;;;;26.63;14.10;;;-4.80;99.90;;;;;;5048829;28;20037;-47
2022/12/15 01:33:11;;;;;;;27.92;14.88;;;-4.70;99.90;;;;;;5048577;28;20409;-49
2022/12/15 01:35:37;;;;;;;28.80;13.15;;;-4.80;99.90;;;;;;5047866;28;20041;-47
2022/12/15 01:38:03;;;;;;;24.38;13.63;;;-4.90;99.90;;;;;;5048187;28;20044;-48
2022/12/15 01:40:44;;;;;;;27.83;14.18;;;-5.00;99.90;;;;;;5048355;28;20044;-49
2022/12/15 01:43:28;;;;;;;28.25;12.40;;;-5.00;99.90;;;;;;5048100;28;20080;-49
2022/12/15 01:46:04;;;;;;;24.80;12.18;;;-5.10;99.90;;;;;;5047749;28;20112;-47
2022/12/15 01:48:33;;;;;;;24.67;13.57;;;-5.00;99.90;;;;;;5047833;28;20489;-49
2022/12/15 01:51:05;;;;;;;26.02;13.30;;;-5.00;99.90;;;;;;5047955;28;20041;-47
2022/12/15 01:53:56;;;;;;;23.90;12.90;;;-4.90;99.90;;;;;;5047635;28;20469;-48
2022/12/15 01:56:25;;;;;;;24.60;12.35;;;-4.90;99.90;;;;;;5036733;28;20044;-47
2022/12/15 01:58:55;;;;;;;29.08;13.98;;;-5.00;99.90;;;;;;5047825;28;20037;-48
2022/12/15 02:01:21;;;;;;;25.23;13.57;;;-4.90;99.90;;;;;;5048340;28;20066;-50
2022/12/15 02:03:47;;;;;;;27.50;13.73;;;-4.90;99.90;;;;;;5046986;28;20044;-46
2022/12/15 02:06:15;;;;;;;32.28;14.43;;;-4.90;99.90;;;;;;5043192;28;20139;-47
2022/12/15 02:08:43;;;;;;;24.30;13.07;;;-4.90;99.90;;;;;;5037823;28;20052;-48
2022/12/15 02:11:32;;;;;;;28.55;13.77;;;-4.80;99.90;;;;;;5045041;28;20037;-47
2022/12/15 02:14:07;;;;;;;29.45;14.50;;;-4.80;99.90;;;;;;5046087;28;20041;-48
2022/12/15 02:16:45;;;;;;;32.10;14.73;;;-4.70;99.90;;;;;;5046452;28;20049;-48
2022/12/15 02:19:38;;;;;;;28.58;14.07;;;-4.60;99.90;;;;;;5046761;28;20041;-47
2022/12/15 02:22:25;;;;;;;28.08;13.82;;;-4.50;99.90;;;;;;5046099;28;20060;-49
2022/12/15 02:24:53;;;;;;;25.50;12.75;;;-4.40;99.90;;;;;;5046121;28;20467;-49
2022/12/15 02:27:58;;;;;;;23.40;13.43;;;-4.50;99.90;;;;;;5045980;28;20129;-47
2022/12/15 02:30:38;;;;;;;28.13;13.77;;;-4.50;99.90;;;;;;5047037;28;20055;-50
2022/12/15 02:33:13;;;;;;;28.02;13.32;;;-4.60;99.90;;;;;;5046756;28;20391;-47
2022/12/15 02:35:56;;;;;;;23.48;13.80;;;-4.70;99.90;;;;;;5046619;28;20060;-50
2022/12/15 02:38:36;;;;;;;24.55;12.82;;;-4.80;99.90;;;;;;5046667;28;20048;-49
2022/12/15 02:41:04;;;;;;;22.63;12.65;;;-4.80;99.90;;;;;;5046811;28;20041;-48
2022/12/15 02:43:35;;;;;;;27.95;13.48;;;-4.90;99.90;;;;;;5046991;28;20098;-48
2022/12/15 02:46:12;;;;;;;24.80;12.77;;;-4.90;99.90;;;;;;5046269;28;20135;-47
2022/12/15 02:49:13;;;;;;;24.48;14.05;;;-4.90;99.90;;;;;;5046509;28;20045;-48
2022/12/15 02:52:07;;;;;;;29.42;13.63;;;-5.00;99.90;;;;;;5046410;28;20045;-47
2022/12/15 02:55:01;;;;;;;26.48;13.00;;;-5.10;99.90;;;;;;5047025;28;20041;-47
2022/12/15 02:57:51;;;;;;;21.63;11.55;;;-5.10;99.90;;;;;;5046637;28;20037;-47
2022/12/15 03:00:17;;;;;;;27.00;13.23;;;-5.10;99.90;;;;;;5047402;28;20052;-48
2022/12/15 03:02:53;;;;;;;26.35;14.13;;;-5.20;99.90;;;;;;5047214;28;20118;-48
2022/12/15 03:05:20;;;;;;;29.13;13.60;;;-5.00;99.90;;;;;;5046579;28;20053;-47
2022/12/15 03:07:50;;;;;;;25.90;13.43;;;-5.00;99.90;;;;;;5046803;28;20040;-48
2022/12/15 03:10:17;;;;;;;32.13;14.52;;;-4.90;99.90;;;;;;5046589;28;20077;-47
2022/12/15 03:12:43;;;;;;;28.38;14.30;;;-4.80;99.90;;;;;;5046914;28;20136;-48
2022/12/15 03:15:10;;;;;;;27.95;14.07;;;-4.80;99.90;;;;;;5046584;28;20047;-48
2022/12/15 03:17:37;;;;;;;28.15;14.57;;;-4.70;99.90;;;;;;5046604;28;20041;-47
2022/12/15 03:20:03;;;;;;;27.50;13.45;;;-4.60;99.90;;;;;;5046711;28;20045;-47
2022/12/15 03:22:30;;;;;;;24.60;12.98;;;-4.60;99.90;;;;;;5046399;28;20128;-50
2022/12/15 03:24:56;;;;;;;32.05;14.63;;;-4.60;99.90;;;;;;5046293;28;20048;-47
2022/12/15 03:27:22;;;;;;;22.73;12.05;;;-4.60;99.90;;;;;;5046597;28;20134;-46
2022/12/15 03:29:48;;;;;;;27.63;13.10;;;-4.60;99.90;;;;;;5045919;28;20045;-47
2022/12/15 03:32:13;;;;;;;25.95;13.55;;;-4.60;99.90;;;;;;5045950;28;20090;-47
2022/12/15 03:34:39;;;;;;;27.92;12.13;;;-4.60;99.90;;;;;;5045637;28;20152;-45
2022/12/15 03:37:05;;;;;;;23.95;12.65;;;-4.60;99.90;;;;;;5045910;28;20090;-47
2022/12/15 03:39:31;;;;;;;26.63;12.75;;;-4.60;99.90;;;;;;5044976;28;20060;-49
2022/12/15 03:41:56;;;;;;;25.30;12.05;;;-4.70;99.90;;;;;;5045872;28;20045;-47
2022/12/15 03:44:22;;;;;;;25.90;12.20;;;-4.60;99.90;;;;;;5046369;28;20041;-47
2022/12/15 03:46:47;;;;;;;24.33;12.40;;;-4.70;99.90;;;;;;5046130;28;20041;-47
2022/12/15 03:49:13;;;;;;;22.90;12.40;;;-4.60;99.90;;;;;;5045834;28;20045;-50
2022/12/15 03:51:39;;;;;;;26.30;11.85;;;-4.60;99.90;;;;;;5049234;28;20033;-46
2022/12/15 03:54:06;;;;;;;24.45;11.77;;;-4.60;99.90;;;;;;5049497;28;20110;-46
2022/12/15 03:56:31;;;;;;;24.13;11.63;;;-4.50;99.90;;;;;;5050108;28;20048;-48
2022/12/15 03:58:57;;;;;;;22.70;12.82;;;-4.50;99.90;;;;;;5049677;28;20167;-49
2022/12/15 04:01:27;;;;;;;22.73;12.57;;;-4.50;99.90;;;;;;5050112;28;20131;-49
2022/12/15 04:03:54;;;;;;;28.15;11.38;;;-4.40;99.90;;;;;;5049523;28;20383;-47
2022/12/15 04:06:19;;;;;;;25.90;12.52;;;-4.30;99.90;;;;;;5049951;28;20036;-48
2022/12/15 04:08:45;;;;;;;26.88;13.05;;;-4.40;99.90;;;;;;5048623;28;20148;-46
2022/12/15 04:11:11;;;;;;;25.58;13.25;;;-4.40;99.90;;;;;;5048988;28;20051;-46
2022/12/15 04:13:36;;;;;;;28.38;12.50;;;-4.40;99.90;;;;;;5049591;28;20041;-48
2022/12/15 04:16:03;;;;;;;28.35;12.25;;;-4.30;99.90;;;;;;5049346;28;20044;-48
2022/12/15 04:18:29;;;;;;;25.30;12.02;;;-4.30;99.90;;;;;;5049690;28;20048;-47
2022/12/15 04:20:54;;;;;;;26.20;12.77;;;-4.30;99.90;;;;;;5049289;28;20053;-47
2022/12/15 04:23:20;;;;;;;26.98;13.25;;;-5.00;99.90;;;;;;5049516;28;20734;-50
2022/12/15 05:31:57;;;;;;;23.27;11.40;;;-4.40;99.90;;;;;;5048307;28;20056;-48
2022/12/15 05:34:41;;;;;;;23.38;11.02;;;-4.30;99.90;;;;;;5048089;28;20040;-46
2022/12/15 05:37:06;;;;;;;18.05;10.75;;;-4.30;99.90;;;;;;5048196;28;20039;-47
2022/12/15 05:39:32;;;;;;;26.17;12.25;;;-4.40;99.90;;;;;;5048610;28;20363;-48
2022/12/15 05:41:58;;;;;;;19.60;10.07;;;-4.40;99.90;;;;;;5048299;28;20073;-49
2022/12/15 05:44:25;;;;;;;22.00;11.00;;;-4.30;99.90;;;;;;5048059;28;20044;-49
2022/12/15 05:46:51;;;;;;;19.77;9.65;;;-4.30;99.90;;;;;;5048390;28;20051;-47
2022/12/15 05:49:17;;;;;;;20.02;10.00;;;-4.30;99.90;;;;;;5048194;28;20140;-46
2022/12/15 05:51:46;;;;;;;14.70;9.10;;;-4.30;99.90;;;;;;5048373;28;20041;-47
2022/12/15 05:54:14;;;;;;;24.20;9.48;;;-4.30;99.90;;;;;;5048225;28;20080;-49
2022/12/15 05:56:40;;;;;;;20.42;9.50;;;-4.40;99.90;;;;;;5048731;28;20120;-48
2022/12/15 05:59:06;;;;;;;21.08;9.27;;;-4.30;99.90;;;;;;5048219;28;20586;-48
2022/12/15 06:01:32;;;;;;;17.73;9.25;;;-4.30;99.90;;;;;;5048200;28;20033;-48
2022/12/15 06:03:58;;;;;;;20.10;9.52;;;-4.30;99.90;;;;;;5047361;28;20032;-45
2022/12/15 06:06:24;;;;;;;20.70;10.02;;;-4.30;99.90;;;;;;5046473;28;20071;-46
2022/12/15 06:08:50;;;;;;;18.80;8.90;;;-4.30;99.90;;;;;;5047783;28;20037;-45
2022/12/15 06:11:18;;;;;;;17.58;8.02;;;-4.30;99.90;;;;;;5047295;28;20040;-45
2022/12/15 06:13:45;;;;;;;22.60;9.48;;;-4.30;99.90;;;;;;5046469;28;20044;-48
2022/12/15 06:16:14;;;;;;;15.57;8.80;;;-4.20;99.90;;;;;;5047283;28;20179;-46
2022/12/15 06:18:44;;;;;;;17.08;7.68;;;-4.20;99.90;;;;;;5046831;28;20119;-48
2022/12/15 06:21:14;;;;;;;21.30;9.15;;;-4.20;99.90;;;;;;5047448;28;20045;-49
2022/12/15 06:23:41;;;;;;;13.70;8.32;;;-4.20;99.90;;;;;;5047320;28;20041;-47
2022/12/15 06:26:13;;;;;;;17.38;9.10;;;-4.20;99.90;;;;;;5047070;28;20048;-46
2022/12/15 06:28:39;;;;;;;19.58;9.50;;;-4.30;99.90;;;;;;5047141;28;20590;-46
2022/12/15 06:31:07;;;;;;;18.42;9.55;;;-4.30;99.90;;;;;;5046927;28;20483;-47
2022/12/15 06:33:33;;;;;;;16.38;8.50;;;-4.40;99.90;;;;;;5046336;28;20049;-48
2022/12/15 06:36:05;;;;;;;18.08;8.90;;;-4.50;99.90;;;;;;5045033;28;20037;-47
2022/12/15 06:38:31;;;;;;;18.38;9.02;;;-4.40;99.90;;;;;;5046830;28;20044;-49
2022/12/15 06:41:00;;;;;;;17.13;9.25;;;-4.40;99.90;;;;;;5047210;28;20080;-48
2022/12/15 06:43:27;;;;;;;22.25;10.27;;;-4.30;99.90;;;;;;5046951;28;20682;-46
2022/12/15 06:45:53;;;;;;;18.15;9.23;;;-4.30;99.90;;;;;;5046963;28;20049;-46
2022/12/15 06:48:20;;;;;;;20.02;9.25;;;-4.40;99.90;;;;;;5046920;28;20060;-48
2022/12/15 06:50:46;;;;;;;20.40;9.93;;;-4.40;99.90;;;;;;5047042;28;20037;-48
2022/12/15 06:53:13;;;;;;;19.13;9.73;;;-4.30;99.90;;;;;;5046929;28;20049;-47
2022/12/15 06:55:40;;;;;;;21.10;8.98;;;-4.30;99.90;;;;;;5046567;28;20091;-48
2022/12/15 06:58:05;;;;;;;17.00;9.02;;;-4.40;99.90;;;;;;5046985;28;20110;-49
2022/12/15 07:00:33;;;;;;;18.65;9.75;;;-4.40;99.90;;;;;;5045411;28;20479;-47
2022/12/15 07:02:58;;;;;;;20.48;9.73;;;-4.40;99.90;;;;;;5046193;28;20430;-47
2022/12/15 07:05:24;;;;;;;17.85;9.05;;;-4.40;99.90;;;;;;5046520;28;20059;-47
2022/12/15 07:07:51;;;;;;;17.00;9.43;;;-4.30;99.90;;;;;;5046254;28;20704;-47
2022/12/15 07:10:17;;;;;;;23.27;9.45;;;-4.30;99.90;;;;;;5046420;28;20052;-46
2022/12/15 07:12:42;;;;;;;18.63;9.32;;;-4.30;99.90;;;;;;5045928;28;20037;-47
2022/12/15 07:15:10;;;;;;;21.60;9.85;;;-4.20;99.90;;;;;;5046511;28;20048;-47
2022/12/15 07:17:36;;;;;;;25.73;10.00;;;-4.20;99.90;;;;;;5045983;28;20475;-48
2022/12/15 07:20:06;;;;;;;20.70;10.55;;;-4.20;99.90;;;;;;5046177;28;20080;-47
2022/12/15 07:22:32;;;;;;;24.65;11.93;;;-4.20;99.90;;;;;;5046112;28;20088;-47
2022/12/15 07:24:58;;;;;;;24.38;11.57;;;-4.30;99.90;;;;;;5048600;28;20036;-49
2022/12/15 07:27:24;;;;;;;23.70;9.85;;;-4.30;99.90;;;;;;5050187;28;20118;-47
2022/12/15 07:29:49;;;;;;;18.58;9.90;;;-4.40;99.90;;;;;;5050705;28;20060;-48
2022/12/15 07:32:15;;;;;;;22.48;10.13;;;-4.40;99.90;;;;;;5050099;28;20138;-48
2022/12/15 07:34:41;;;;;;;29.50;11.10;;;-4.40;99.90;;;;;;5050222;28;20151;-48
2022/12/15 07:37:07;;;;;;;23.85;10.45;;;-3.40;99.90;;;;;;5050148;28;20043;-48
2022/12/15 07:39:33;;;;;;;22.30;9.25;;;-4.40;99.90;;;;;;5050039;28;20080;-46
2022/12/15 07:41:59;;;;;;;17.70;9.85;;;-4.30;99.90;;;;;;5050104;28;20759;-46
2022/12/15 07:44:25;;;;;;;21.35;9.80;;;-4.30;99.90;;;;;;5049950;28;20052;-48
2022/12/15 07:46:51;;;;;;;21.33;10.27;;;-4.20;99.90;;;;;;5050110;28;20102;-47
2022/12/15 07:49:17;;;;;;;24.95;9.90;;;-4.20;99.90;;;;;;5050123;28;20045;-49
2022/12/15 07:51:43;;;;;;;19.08;10.27;;;-4.20;99.90;;;;;;5050189;28;20045;-47
2022/12/15 07:54:10;;;;;;;22.17;10.32;;;-4.10;99.90;;;;;;5050023;28;20045;-47
2022/12/15 07:56:37;;;;;;;18.65;10.02;;;-4.00;99.90;;;;;;5049903;28;20055;-49
2022/12/15 07:59:03;;;;;;;18.05;9.15;;;-4.00;99.90;;;;;;5049635;28;20509;-48
2022/12/15 08:01:29;;;;;;;22.25;10.18;;;-4.00;99.90;;;;;;5048419;28;20098;-47
2022/12/15 08:03:54;;;;;;;19.35;10.13;;;-3.90;99.90;;;;;;5049273;28;20422;-48
2022/12/15 08:06:20;;;;;;;25.73;9.45;;;-3.90;99.90;;;;;;5049104;28;20609;-48
2022/12/15 08:08:46;;;;;;;20.83;10.13;;;-3.90;99.90;;;;;;5049460;28;20044;-48
2022/12/15 08:11:13;;;;;;;18.88;8.93;;;-3.90;99.90;;;;;;5049658;28;20041;-49
2022/12/15 08:13:40;;;;;;;29.05;10.85;;;-4.00;99.90;;;;;;5049084;28;20047;-48
2022/12/15 08:16:06;;;;;;;21.27;10.52;;;-3.80;99.90;;;;;;5049683;28;20052;-47
2022/12/15 08:18:32;;;;;;;20.50;10.13;;;-3.80;99.90;;;;;;5049671;28;20037;-47
2022/12/15 08:21:02;;;;;;;20.13;10.60;;;-3.80;99.90;;;;;;5049289;28;20056;-49
2022/12/15 08:23:28;;;;;;;27.10;9.98;;;-3.80;99.90;;;;;;5049638;28;20127;-47
2022/12/15 08:25:53;;;;;;;16.60;10.43;;;-3.80;99.90;;;;;;5049642;28;20179;-47
2022/12/15 08:28:19;;;;;;;20.00;10.20;;;-3.70;99.90;;;;;;5049580;28;20041;-47
2022/12/15 08:30:45;;;;;;;21.80;11.18;;;-3.60;99.90;;;;;;5049220;28;20190;-49
2022/12/15 08:33:11;;;;;;;23.35;11.23;;;-3.50;99.90;;;;;;5049079;28;20484;-47
2022/12/15 08:35:40;;;;;;;25.77;11.88;;;-3.30;99.90;;;;;;5048517;28;20041;-48
2022/12/15 08:38:05;;;;;;;25.58;12.73;;;-3.10;99.90;;;;;;5049533;28;20048;-48
2022/12/15 08:40:31;;;;;;;24.33;12.98;;;-3.00;99.90;;;;;;5049602;28;20041;-47
2022/12/15 08:42:56;;;;;;;25.63;13.05;;;-3.00;99.90;;;;;;5049590;28;20037;-46
2022/12/15 08:45:22;;;;;;;24.88;13.02;;;-3.10;99.90;;;;;;5049457;28;20088;-50
2022/12/15 08:47:48;;;;;;;24.98;11.95;;;-3.30;99.90;;;;;;5049365;28;20044;-48
2022/12/15 08:50:13;;;;;;;25.58;13.35;;;-3.10;99.90;;;;;;5049240;28;20498;-49
2022/12/15 08:52:41;;;;;;;23.05;12.95;;;-3.30;99.90;;;;;;5047655;28;20044;-47
2022/12/15 08:55:12;;;;;;;21.85;12.43;;;-3.30;99.90;;;;;;5048788;28;20110;-47
2022/12/15 08:57:39;;;;;;;20.92;12.30;;;-2.70;99.90;;;;;;5049191;28;20051;-50
2022/12/15 09:00:05;;;;;;;30.75;12.68;;;-3.20;99.90;;;;;;5049052;28;20056;-48
2022/12/15 09:02:31;;;;;;;23.02;11.30;;;-3.30;99.90;;;;;;5048292;28;20086;-47
2022/12/15 09:04:57;;;;;;;19.60;11.90;;;-3.30;99.90;;;;;;5048960;28;20426;-47
2022/12/15 09:07:22;;;;;;;18.83;12.27;;;-3.30;99.90;;;;;;5049257;28;20087;-46
2022/12/15 09:09:48;;;;;;;24.02;11.77;;;-3.20;99.90;;;;;;5048862;28;20068;-49
2022/12/15 09:12:13;;;;;;;24.80;11.25;;;-3.10;99.90;;;;;;5049331;28;20045;-46
2022/12/15 09:14:39;;;;;;;27.20;12.18;;;-3.00;99.90;;;;;;5048906;28;20092;-54
2022/12/15 09:17:05;;;;;;;30.08;14.27;;;-3.00;99.90;;;;;;5048845;28;20045;-53
2022/12/15 09:19:30;;;;;;;24.00;12.30;;;-2.90;99.90;;;;;;5048452;28;20767;-53
2022/12/15 09:21:56;;;;;;;26.48;13.57;;;-2.90;99.90;;;;;;5048035;28;20049;-53
2022/12/15 09:24:23;;;;;;;19.80;12.07;;;-2.80;99.90;;;;;;5048743;28;20067;-54
2022/12/15 09:26:48;;;;;;;26.92;13.02;;;-2.80;99.90;;;;;;5048769;28;20045;-55
2022/12/15 09:29:14;;;;;;;21.77;12.63;;;-2.70;99.90;;;;;;5048888;28;20101;-52
2022/12/15 09:31:43;;;;;;;28.42;12.95;;;-2.60;99.90;;;;;;5048063;28;20052;-54
2022/12/15 09:34:14;;;;;;;23.00;12.20;;;-2.70;99.90;;;;;;5048199;28;20089;-55
2022/12/15 09:36:39;;;;;;;26.65;13.45;;;-2.40;99.90;;;;;;5048660;28;20049;-54
2022/12/15 09:39:05;;;;;;;20.83;12.85;;;-2.40;99.90;;;;;;5048182;28;20050;-54
2022/12/15 09:41:33;;;;;;;22.88;12.50;;;-2.30;99.90;;;;;;5048188;28;20040;-54
2022/12/15 09:44:06;;;;;;;22.75;11.85;;;-2.20;99.90;;;;;;5047752;28;20483;-53
2022/12/15 09:46:43;;;;;;;24.83;13.00;;;-2.20;99.90;;;;;;5048096;28;20067;-54
2022/12/15 09:49:40;;;;;;;25.83;14.35;;;-2.10;99.90;;;;;;5048152;28;20036;-55
2022/12/15 09:52:14;;;;;;;28.25;13.95;;;-2.10;99.90;;;;;;5047798;28;20098;-50
2022/12/15 09:54:42;;;;;;;25.40;11.98;;;-2.00;99.90;;;;;;5047841;28;20676;-51
2022/12/15 09:57:45;;;;;;;24.88;12.48;;;-2.00;99.90;;;;;;5047914;28;20108;-49
2022/12/15 10:00:20;;;;;;;;;;;-1.90;99.90;;;;;;5029356;28;20064;-47
2022/12/15 10:03:07;;;;;;;29.30;14.57;;;-1.70;99.90;;;;;;5047398;28;19928;-49
2022/12/15 10:06:06;;;;;;;32.33;17.08;;;-1.40;99.90;;;;;;5047993;28;20040;-47
2022/12/15 10:08:39;;;;;;;28.10;14.50;;;-1.20;99.90;;;;;;5048037;28;20040;-49
2022/12/15 10:11:39;;;;;;;28.52;15.20;;;-1.10;99.90;;;;;;5047481;28;20139;-49
2022/12/15 10:14:26;;;;;;;28.10;15.25;;;-1.10;99.90;;;;;;5047394;28;20049;-47
2022/12/15 10:17:20;;;;;;;31.38;15.63;;;-1.10;99.90;;;;;;5047197;28;20122;-47
2022/12/15 10:20:12;;;;;;;28.98;15.25;;;-1.00;99.90;;;;;;5047519;28;20044;-50
2022/12/15 10:22:38;;;;;;;29.50;15.77;;;-1.00;99.90;;;;;;5046116;28;20041;-58
2022/12/15 10:25:19;;;;;;;28.73;16.13;;;-1.10;99.90;;;;;;5045589;28;20486;-50
2022/12/15 10:28:19;;;;;;;31.17;16.58;;;-1.10;99.90;;;;;;5045867;28;20088;-50
2022/12/15 10:30:54;;;;;;;26.50;14.85;;;-1.10;99.90;;;;;;5046262;28;20052;-49
2022/12/15 10:33:23;;;;;;;30.08;16.48;;;-1.20;99.90;;;;;;5045811;28;20052;-50
2022/12/15 10:35:52;;;;;;;31.00;15.77;;;-1.20;99.90;;;;;;5046081;28;20047;-49
2022/12/15 10:38:44;;;;;;;31.85;16.20;;;-1.20;99.90;;;;;;5046120;28;20075;-50
2022/12/15 10:41:20;;;;;;;30.77;15.60;;;-1.20;99.90;;;;;;5046594;28;20045;-51
2022/12/15 10:43:49;;;;;;;27.05;15.45;;;-1.20;99.90;;;;;;5046546;28;20119;-63
2022/12/15 10:46:23;;;;;;;30.00;15.73;;;-1.20;99.90;;;;;;5024221;28;20057;-48
2022/12/15 10:49:09;;;;;;;27.05;14.85;;;-1.20;99.90;;;;;;5025829;28;20057;-52
2022/12/15 10:51:51;;;;;;;30.60;16.63;;;-1.20;99.90;;;;;;5037714;28;20083;-54
2022/12/15 10:54:17;;;;;;;29.60;14.63;;;-1.20;99.90;;;;;;5043867;28;20502;-54
2022/12/15 10:56:52;;;;;;;31.70;16.27;;;-1.20;99.90;;;;;;5044244;28;20049;-57
2022/12/15 10:59:31;;;;;;;25.30;14.65;;;-1.10;99.90;;;;;;5043674;28;20045;-52
2022/12/15 11:02:20;;;;;;;26.13;15.30;;;-1.30;99.90;;;;;;5043777;28;20074;-53
2022/12/15 11:05:15;;;;;;;34.78;16.42;;;-1.10;99.90;;;;;;5035088;28;20098;-56
2022/12/15 11:07:52;;;;;;;33.70;15.60;;;-1.00;99.90;;;;;;5042847;28;20052;-56
2022/12/15 11:10:26;;;;;;;29.08;15.57;;;-1.00;99.90;;;;;;5044101;28;20056;-58
2022/12/15 11:13:15;;;;;;;30.42;16.40;;;-1.00;99.90;;;;;;5044861;28;20596;-53
2022/12/15 11:15:55;;;;;;;29.73;15.00;;;-1.00;99.90;;;;;;5044308;28;20041;-54
2022/12/15 11:18:39;;;;;;;28.05;14.68;;;-0.90;99.90;;;;;;5044890;28;20109;-54
2022/12/15 11:21:14;;;;;;;30.02;16.02;;;-0.90;99.90;;;;;;5043884;28;20151;-59
2022/12/15 11:24:16;;;;;;;30.25;16.00;;;-0.90;99.90;;;;;;5045292;28;20045;-62
2022/12/15 11:26:45;;;;;;;32.05;17.70;;;-0.90;99.90;;;;;;5044326;28;20558;-61
2022/12/15 11:29:29;;;;;;;31.95;17.05;;;-0.90;99.90;;;;;;5042038;28;20056;-61
2022/12/15 11:31:55;;;;;;;34.17;17.20;;;-0.80;99.90;;;;;;5044075;28;20047;-59
2022/12/15 11:34:23;;;;;;;32.60;17.67;;;-0.80;99.90;;;;;;5043167;28;20041;-48
2022/12/15 11:37:09;;;;;;;35.53;17.70;;;-0.70;99.90;;;;;;5043870;28;20037;-45
2022/12/15 11:39:48;;;;;;;34.97;18.20;;;-1.70;99.90;;;;;;5044506;28;20056;-52
2022/12/15 11:42:37;;;;;;;34.80;18.98;;;-0.70;99.90;;;;;;5043199;28;20084;-48
2022/12/15 11:45:16;;;;;;;32.80;17.35;;;-0.70;99.90;;;;;;5043067;28;20048;-50
2022/12/15 11:47:49;;;;;;;34.58;17.70;;;-0.70;99.90;;;;;;5024661;28;20052;-47
2022/12/15 11:50:36;;;;;;;31.75;16.80;;;-0.70;99.90;;;;;;5043295;28;20053;-49
2022/12/15 11:53:13;;;;;;;27.38;16.08;;;-0.70;99.90;;;;;;5045396;28;20052;-54
2022/12/15 11:55:55;;;;;;;34.53;18.10;;;-0.60;99.90;;;;;;5044116;28;20063;-49
2022/12/15 11:58:21;;;;;;;30.07;17.17;;;-0.60;99.90;;;;;;5043987;28;20044;-48
2022/12/15 12:01:09;;;;;;;30.02;17.15;;;-0.60;99.90;;;;;;5044045;28;20441;-49
2022/12/15 12:03:47;;;;;;;38.15;16.73;;;-0.60;99.90;;;;;;5042945;28;20045;-49
2022/12/15 12:06:25;;;;;;;32.22;16.65;;;-0.60;99.90;;;;;;5043176;28;20041;-50
2022/12/15 12:08:56;;;;;;;33.83;16.80;;;-0.50;99.90;;;;;;5043953;28;20052;-49
2022/12/15 12:11:45;;;;;;;32.33;16.67;;;-0.60;99.90;;;;;;5044442;28;20790;-52
2022/12/15 12:14:47;;;;;;;34.33;17.63;;;0.20;99.90;;;;;;5047186;28;20053;-52
2022/12/15 12:17:51;;;;;;;31.10;17.77;;;-0.50;99.90;;;;;;5047102;28;20693;-52
2022/12/15 12:20:21;;;;;;;30.77;18.02;;;-0.50;99.90;;;;;;5046687;28;20536;-52
2022/12/15 12:23:09;;;;;;;30.35;16.55;;;-0.40;99.90;;;;;;5047844;28;20044;-59
2022/12/15 12:25:50;;;;;;;31.98;17.13;;;-0.40;99.90;;;;;;5038328;28;20053;-59
2022/12/15 12:28:21;;;;;;;32.60;16.05;;;-0.40;99.90;;;;;;5046799;28;20048;-59
2022/12/15 12:30:47;;;;;;;28.87;16.60;;;-0.40;99.90;;;;;;5047475;28;20688;-59
2022/12/15 12:33:34;;;;;;;30.60;15.90;;;-0.40;99.90;;;;;;5046621;28;20048;-60
2022/12/15 12:36:10;;;;;;;26.73;15.57;;;-0.40;99.90;;;;;;5047322;28;20056;-62
2022/12/15 12:38:40;;;;;;;35.33;17.63;;;-0.30;99.90;;;;;;5045437;28;20481;-59
2022/12/15 12:41:31;;;;;;;30.95;17.00;;;-0.30;99.90;;;;;;5047791;28;20051;-58
2022/12/15 12:44:03;;;;;;;32.05;16.58;;;-0.30;99.90;;;;;;5049479;28;20383;-58
2022/12/15 12:46:31;;;;;;;37.65;17.42;;;-0.30;99.90;;;;;;5045782;28;20516;-61
2022/12/15 12:49:14;;;;;;;31.63;18.08;;;-0.30;99.90;;;;;;5044229;28;20048;-59
2022/12/15 12:51:47;;;;;;;30.67;16.90;;;-0.30;99.90;;;;;;5046063;28;20424;-62
2022/12/15 12:54:31;;;;;;;30.60;15.57;;;-0.30;99.90;;;;;;5047988;28;20067;-53
2022/12/15 12:56:58;;;;;;;30.90;16.90;;;-0.30;99.90;;;;;;5048717;28;20045;-54
2022/12/15 12:59:27;;;;;;;33.50;17.30;;;-0.30;99.90;;;;;;5048356;28;20052;-54
2022/12/15 13:02:17;;;;;;;31.92;16.42;;;-0.30;99.90;;;;;;5048194;28;20447;-55
2022/12/15 13:05:20;;;;;;;29.90;17.58;;;-0.30;99.90;;;;;;5033004;28;20064;-53
2022/12/15 13:07:56;;;;;;;33.63;16.58;;;-0.30;99.90;;;;;;5048834;28;20111;-53
2022/12/15 13:10:24;;;;;;;33.13;17.23;;;-0.30;99.90;;;;;;5048621;28;20044;-55
2022/12/15 13:12:53;;;;;;;35.90;17.75;;;-0.30;99.90;;;;;;5048864;28;20045;-54
2022/12/15 13:15:36;;;;;;;31.88;18.27;;;-0.20;99.90;;;;;;5048683;28;20044;-53
2022/12/15 13:18:11;;;;;;;35.83;18.80;;;-0.20;99.90;;;;;;5048943;28;20059;-53
2022/12/15 13:20:38;;;;;;;37.58;18.08;;;-0.20;99.90;;;;;;5048376;28;20886;-54
2022/12/15 13:23:18;;;;;;;33.30;18.42;;;0.70;99.90;;;;;;5048607;28;20118;-53
2022/12/15 13:26:04;;;;;;;38.60;20.77;;;-0.30;99.90;;;;;;5048580;28;20075;-55
2022/12/15 13:28:38;;;;;;;39.13;20.55;;;-0.20;99.90;;;;;;5037429;28;20104;-53
2022/12/15 13:31:17;;;;;;;39.55;20.48;;;-0.30;99.90;;;;;;5047266;28;20081;-53
2022/12/15 13:33:49;;;;;;;38.10;21.10;;;-0.20;99.90;;;;;;5046663;28;20056;-54
2022/12/15 13:36:36;;;;;;;43.70;22.25;;;-0.20;99.90;;;;;;5048292;28;20099;-54
2022/12/15 13:39:11;;;;;;;42.05;20.90;;;-0.30;99.90;;;;;;5048195;28;20550;-55
2022/12/15 13:41:37;;;;;;;37.50;21.30;;;-0.10;99.90;;;;;;5047909;28;20051;-55
2022/12/15 13:44:22;;;;;;;37.72;21.25;;;-0.30;99.90;;;;;;5047863;28;20056;-54
2022/12/15 13:46:50;;;;;;;39.75;21.23;;;-0.30;99.90;;;;;;5047948;28;20194;-55
2022/12/15 13:49:24;;;;;;;42.17;22.52;;;-0.30;99.90;;;;;;5047730;28;20391;-54
2022/12/15 13:51:49;;;;;;;41.85;22.25;;;-0.30;99.90;;;;;;5047726;28;20090;-56
2022/12/15 13:54:22;;;;;;;40.20;23.38;;;-0.30;99.90;;;;;;5047619;28;20095;-52
2022/12/15 13:56:50;;;;;;;40.83;23.55;;;-0.30;99.90;;;;;;5047848;28;20055;-55
2022/12/15 13:59:39;;;;;;;44.65;24.77;;;-0.30;99.90;;;;;;5046634;28;20037;-55
2022/12/15 14:02:26;;;;;;;45.58;23.75;;;-0.30;99.90;;;;;;5048028;28;20057;-54
2022/12/15 14:05:16;;;;;;;39.03;24.67;;;-0.30;99.90;;;;;;5047662;28;20053;-53
2022/12/15 14:07:52;;;;;;;43.17;24.35;;;-0.40;99.90;;;;;;5047267;28;20040;-54
2022/12/15 14:10:38;;;;;;;44.20;23.75;;;-0.40;99.90;;;;;;5047295;28;20076;-54
2022/12/15 14:13:29;;;;;;;42.85;24.90;;;-0.40;99.90;;;;;;5047306;28;20064;-53
2022/12/15 14:15:58;;;;;;;46.15;24.27;;;-0.40;99.90;;;;;;5047351;28;20125;-54
2022/12/15 14:18:27;;;;;;;46.50;24.58;;;-0.50;99.90;;;;;;5047065;28;20041;-54
2022/12/15 14:20:53;;;;;;;46.55;24.35;;;-0.50;99.90;;;;;;5047086;28;20048;-54
2022/12/15 14:23:28;;;;;;;41.40;24.60;;;-0.50;99.90;;;;;;5046833;28;20115;-55
2022/12/15 14:26:00;;;;;;;47.60;25.83;;;-0.50;99.90;;;;;;5047556;28;20055;-54
2022/12/15 14:28:29;;;;;;;;;;;-0.50;99.90;;;;;;5047750;28;20391;-53
2022/12/15 14:31:04;;;;;;;47.45;27.02;;;-0.60;99.90;;;;;;5047019;28;19930;-54
2022/12/15 14:33:34;;;;;;;55.60;28.85;;;-0.60;99.90;;;;;;5046333;28;20076;-54
2022/12/15 14:36:04;;;;;;;47.08;27.33;;;-0.70;99.90;;;;;;5046980;28;20116;-54
2022/12/15 14:38:39;;;;;;;50.80;28.27;;;-0.70;99.90;;;;;;5047144;28;20076;-54
2022/12/15 14:41:06;;;;;;;50.22;26.13;;;-0.80;99.90;;;;;;5047311;28;20045;-54
2022/12/15 14:43:36;;;;;;;46.25;26.75;;;-0.80;99.90;;;;;;5046985;28;20788;-53
2022/12/15 14:46:14;;;;;;;47.58;26.27;;;0.30;99.90;;;;;;5047123;28;20509;-53
2022/12/15 14:48:49;;;;;;;54.47;27.80;;;-0.90;99.90;;;;;;5046967;28;20037;-54
2022/12/15 14:51:15;;;;;;;44.53;25.95;;;-0.90;99.90;;;;;;5045329;28;20072;-54
2022/12/15 14:53:46;;;;;;;50.25;27.05;;;-1.00;99.90;;;;;;5046522;28;20045;-54
2022/12/15 14:56:23;;;;;;;52.13;27.52;;;-0.90;99.90;;;;;;5046738;28;20163;-52
2022/12/15 14:59:14;;;;;;;50.15;26.90;;;-1.00;99.90;;;;;;5047102;28;20048;-54
2022/12/15 15:01:51;;;;;;;49.97;26.38;;;-1.10;99.90;;;;;;5047321;28;20041;-52
2022/12/15 15:04:27;;;;;;;52.47;28.52;;;-1.10;99.90;;;;;;5046968;28;20045;-54
2022/12/15 15:07:01;;;;;;;47.47;28.50;;;-1.20;99.90;;;;;;5047278;28;20032;-54
2022/12/15 15:09:36;;;;;;;55.85;31.48;;;-1.20;99.90;;;;;;5047035;28;20048;-54
2022/12/15 15:12:11;;;;;;;45.65;28.02;;;-1.20;99.90;;;;;;5046870;28;20045;-53